Terminal Aerodrome Forecast
Issued by NWS Portland, OR

Home | Current Version | Previous Version | Text Only | Print | Product List | Glossary On
Versions: 1 2 3 4 5 6 7 8 9 10 11 12 13 14 15 16 17 18 19 20 21 22 23 24 25 26 27 28 29 30 31 32 33 34 35 36 37 38
000
FTUS46 KPQR 282320
TAFEUG
TAF
KEUG 282320Z 2900/2924 VRB03KT P6SM SCT080 BKN120
     FM290300 VRB03KT 5SM BR FEW002 BKN100
     FM290600 VRB03KT 1/2SM FG BKN002 BKN100
     FM291600 02004KT 3SM BR OVC007
     FM291900 02005KT P6SM OVC012
     FM292200 03007KT P6SM SCT015=

USA.gov is the U.S. government's official web portal to all federal, state and local government web resources and services.